Barcelona, Venezuela
Current Conditions -  °F | °C
As of 12:00 PM on Friday 24 Oct 2014 (Local Time) from SVBC Reporting Station
Scattered Clouds Scattered Clouds  
Wind Chill: 93°   Ceiling: Unl
Heat Index: 107°   Visibility: 6mi
Dew Point: 77°   Wind: 12mph
Humidity: 59%   Direction: 20°NNE
Pressure: 29.91"   Gusts: NA
Location:  10.13°N, 64.72°W
Report Text: SVBC 241600Z 02010KT 9999 SCT010 34/25 Q1013
Loading
Personal Weather Stations






























Interactive Weather Map
Tropical Storm Tracking
New forecast layout! Learn more

10-Day Weather Forecast

Advertisements
Track Severe Weather on mobile